Flight Track Log - Related Links

Times and Time Zones

All times are in EDT time to prevent confusion due to time zone crossing. See the FIV428 flight status page for this flight to view local times or setup timezone preferences in your user account.

Time Position Orientation Groundspeed Altitude Reporting Facility
EDT Latitude Longitude Course Direction KTS MPH feet Rate Location/Type
Mon 02:51:35 PM 32.5850 -100.9589 272° West 336 387 6,000  Level Fort Worth Center
Mon 02:52:35 PM 32.5869 -101.0378 272° West 251 289 9,700 3,471 Climbing Fort Worth Center
Mon 02:53:36 PM 32.5972 -101.1122 279° West 231 266 13,000 3,050 Climbing Fort Worth Center
Mon 02:54:35 PM 32.6439 -101.1536 323° Northwest 179 206 15,800 2,471 Climbing Fort Worth Center
Mon 02:55:35 PM 32.6800 -101.2019 312° West 189 217 17,900 1,850 Climbing Fort Worth Center
Mon 02:56:35 PM 32.7033 -101.2647 294° West 195 224 19,500 1,835 Climbing Fort Worth Center
Mon 02:57:36 PM 32.7322 -101.3375 295° West 219 252 21,600 1,950 Climbing Fort Worth Center
Mon 02:58:35 PM 32.7592 -101.4103 294° West 233 268 23,400 1,714 Climbing Fort Worth Center
Mon 02:59:35 PM 32.7900 -101.4883 295° West 248 285 25,000 1,600 Climbing Fort Worth Center
Mon 03:00:35 PM 32.8292 -101.5717 299° West 268 308 26,600 1,550 Climbing Fort Worth Center
Mon 03:01:35 PM 32.8597 -101.6547 294° West 293 337 28,100 1,550 Climbing Fort Worth Center
Mon 03:02:35 PM 32.8961 -101.7453 296° West 304 350 29,700 1,600 Climbing Fort Worth Center
Mon 03:03:35 PM 32.9386 -101.8439 297° West 311 358 31,300 1,550 Climbing Fort Worth Center
Mon 03:04:35 PM 32.9675 -101.9147 296° West 284 327 32,800 1,500 Climbing Fort Worth Center
Mon 03:05:35 PM 33.0097 -102.0161 296° West 289 333 34,300 1,250 Climbing Fort Worth Center
Mon 03:06:35 PM 33.0400 -102.0967 294° West 299 344 35,300 1,050 Climbing Fort Worth Center
Mon 03:07:35 PM 33.0797 -102.2056 294° West 321 369 36,400 1,000 Climbing Fort Worth Center
Mon 03:08:35 PM 33.1161 -102.2942 296° West 328 377 37,300 950 Climbing Fort Worth Center
Mon 03:09:35 PM 33.1556 -102.4056 293° West 323 372 38,300 850 Climbing Fort Worth Center
Mon 03:10:35 PM 33.1917 -102.4944 296° West 329 379 39,000 750 Climbing Fort Worth Center
Mon 03:11:35 PM 33.2353 -102.6011 296° West 329 379 39,800 500 Climbing Fort Worth Center
Mon 03:12:35 PM 33.2744 -102.7128 293° West 353 406 40,000 60 Climbing Fort Worth Center
Mon 03:14:54 PM 33.3722 -102.9558 296° West 384 442 40,000  Level Albuquerque Center
Mon 03:15:54 PM 33.4253 -103.0986 294° West 390 449 40,000  Level Albuquerque Center
Mon 03:16:57 PM 33.4703 -103.2153 295° West 389 448 40,000  Level Albuquerque Center
Mon 03:17:58 PM 33.5147 -103.3306 295° West 385 443 40,000  Level Albuquerque Center
Mon 03:19:01 PM 33.5589 -103.4503 294° West 389 448 40,000  Level Albuquerque Center
Mon 03:20:03 PM 33.6031 -103.5678 294° West 390 449 40,000  Level Albuquerque Center
Mon 03:21:04 PM 33.6531 -103.7028 294° West 391 450 40,000  Level Albuquerque Center
Mon 03:22:05 PM 33.7006 -103.8297 294° West 389 448 40,000  Level Albuquerque Center
Mon 03:23:09 PM 33.7456 -103.9492 294° West 392 451 40,000  Level Albuquerque Center
Mon 03:24:14 PM 33.7931 -104.0758 294° West 391 450 40,000  Level Albuquerque Center
Mon 03:25:11 PM 33.8356 -104.1947 293° West 389 448 40,000  Level Albuquerque Center
Mon 03:26:15 PM 33.8822 -104.3225 294° West 390 449 40,000  Level Albuquerque Center
Mon 03:27:16 PM 33.9256 -104.4411 294° West 389 448 40,000  Level Albuquerque Center
Mon 03:28:19 PM 33.9681 -104.5606 293° West 389 448 40,000  Level Albuquerque Center
Mon 03:29:19 PM 34.0142 -104.6881 294° West 388 447 40,000  Level Albuquerque Center
Mon 03:30:21 PM 34.0556 -104.8000 294° West 387 445 40,000  Level Albuquerque Center
Mon 03:31:24 PM 34.0989 -104.9208 293° West 388 447 40,000  Level Albuquerque Center
Mon 03:32:25 PM 34.1414 -105.0394 293° West 383 441 40,000  Level Albuquerque Center
Mon 03:33:29 PM 34.1919 -105.1811 293° West 387 445 40,000  Level Albuquerque Center
Mon 03:34:29 PM 34.2350 -105.3028 293° West 390 449 40,000  Level Albuquerque Center
Mon 03:35:30 PM 34.2786 -105.4236 294° West 389 448 40,000  Level Albuquerque Center
Mon 03:36:34 PM 34.3206 -105.5456 293° West 388 447 40,000  Level Albuquerque Center
Mon 03:37:35 PM 34.3625 -105.6669 293° West 387 445 40,000  Level Albuquerque Center
Mon 03:38:38 PM 34.3728 -105.7947 276° West 383 441 40,000  Level Albuquerque Center
Mon 03:39:39 PM 34.3811 -105.9269 274° West 388 447 40,000  Level Albuquerque Center
Mon 03:40:42 PM 34.3883 -106.0553 274° West 383 441 40,000  Level Albuquerque Center
Mon 03:41:43 PM 34.3939 -106.1853 273° West 383 441 40,000  Level Albuquerque Center
Mon 03:42:43 PM 34.4017 -106.3153 274° West 387 445 40,000  Level Albuquerque Center
Mon 03:43:47 PM 34.4083 -106.4450 274° West 386 444 40,000  Level Albuquerque Center
Mon 03:44:47 PM 34.4167 -106.6042 274° West 387 445 40,000  Level Albuquerque Center
Mon 03:45:51 PM 34.4233 -106.7333 274° West 386 444 40,000  Level Albuquerque Center
Mon 03:46:53 PM 34.4306 -106.8719 274° West 383 441 40,000  Level Albuquerque Center
Mon 03:47:53 PM 34.4358 -107.0003 273° West 381 438 40,000  Level Albuquerque Center
Mon 03:48:57 PM 34.4428 -107.1289 274° West 381 438 40,000  Level Albuquerque Center
Mon 03:49:58 PM 34.4453 -107.2497 271° West 385 443 40,000  Level Albuquerque Center
Mon 03:50:59 PM 34.4511 -107.3783 273° West 383 441 40,000  Level Albuquerque Center
Mon 03:52:02 PM 34.4561 -107.5067 273° West 382 440 40,000  Level Albuquerque Center
Mon 03:53:03 PM 34.4628 -107.6619 273° West 382 440 40,000  Level Albuquerque Center
Mon 03:54:06 PM 34.4681 -107.7908 273° West 383 441 40,000  Level Albuquerque Center
Mon 03:55:08 PM 34.4739 -107.9197 273° West 382 440 40,000  Level Albuquerque Center
Mon 03:56:08 PM 34.4800 -108.0475 273° West 381 438 40,000  Level Albuquerque Center
Mon 03:57:12 PM 34.4839 -108.1750 272° West 380 437 40,000  Level Albuquerque Center
Mon 03:58:12 PM 34.4883 -108.3036 272° West 382 440 40,000  Level Albuquerque Center
Mon 03:59:15 PM 34.4936 -108.4344 273° West 386 444 40,000  Level Albuquerque Center
Mon 04:00:18 PM 34.4989 -108.5794 273° West 380 437 40,000  Level Albuquerque Center
Mon 04:01:19 PM 34.5039 -108.7225 272° West 378 435 40,000  Level Albuquerque Center
Mon 04:02:22 PM 34.5078 -108.8444 272° West 379 436 40,000  Level Albuquerque Center
Mon 04:03:23 PM 34.5108 -108.9678 272° West 380 437 40,000  Level Albuquerque Center
Mon 04:04:24 PM 34.5158 -109.1117 272° West 382 440 40,000  Level Albuquerque Center
Mon 04:05:27 PM 34.5197 -109.2361 272° West 383 441 40,000  Level Albuquerque Center
Mon 04:06:29 PM 34.5231 -109.3814 272° West 384 442 40,000  Level Albuquerque Center
Mon 04:07:31 PM 34.5267 -109.5039 272° West 384 442 40,000  Level Albuquerque Center
Mon 04:08:32 PM 34.5306 -109.6472 272° West 381 438 40,000  Level Albuquerque Center
Mon 04:09:35 PM 34.5333 -109.7697 272° West 380 437 40,000  Level Albuquerque Center
Mon 04:10:37 PM 34.5369 -109.9131 272° West 382 440 40,000  Level Albuquerque Center
Mon 04:11:37 PM 34.5381 -110.0336 271° West 377 434 40,000  Level Albuquerque Center
Mon 04:12:41 PM 34.5431 -110.1772 272° West 379 436 40,000  Level Albuquerque Center
Mon 04:13:44 PM 34.5453 -110.3000 271° West 380 437 40,000  Level Albuquerque Center
Mon 04:14:44 PM 34.5475 -110.4214 271° West 378 435 40,000  Level Albuquerque Center
Mon 04:15:48 PM 34.5506 -110.5622 272° West 375 432 40,000  Level Albuquerque Center
Mon 04:16:48 PM 34.5525 -110.6836 271° West 375 432 40,000  Level Albuquerque Center
Mon 04:17:52 PM 34.5511 -110.8233 269° West 373 429 40,000  Level Albuquerque Center
Mon 04:18:52 PM 34.5544 -110.9494 272° West 375 432 40,000  Level Albuquerque Center
Mon 04:19:53 PM 34.5553 -111.0747 270° West 374 430 40,000  Level Albuquerque Center
Mon 04:20:58 PM 34.5575 -111.1992 271° West 372 428 40,000  Level Albuquerque Center
Mon 04:21:57 PM 34.5586 -111.3236 271° West 371 427 40,000  Level Albuquerque Center
Mon 04:22:59 PM 34.5603 -111.4728 271° West 372 428 40,000  Level Albuquerque Center
Mon 04:24:03 PM 34.5614 -111.5972 271° West 371 427 40,000  Level Albuquerque Center
Mon 04:25:05 PM 34.5625 -111.7211 271° West 370 426 40,000  Level Albuquerque Center
Mon 04:26:05 PM 34.5639 -111.8444 271° West 369 425 40,000  Level Albuquerque Center
Mon 04:27:09 PM 34.5639 -111.9683 270° West 370 426 40,000  Level Albuquerque Center
Mon 04:28:09 PM 34.5603 -112.0911 268° West 368 423 40,000  Level Albuquerque Center
Mon 04:29:13 PM 34.5439 -112.2386 262° West 370 426 40,000  Level Albuquerque Center
Mon 04:30:13 PM 34.5308 -112.3608 263° West 370 426 40,000  Level Albuquerque Center
Mon 04:31:17 PM 34.5178 -112.4844 263° West 371 427 40,000  Level Albuquerque Center
Mon 04:32:18 PM 34.5044 -112.6086 263° West 371 427 40,000  Level Albuquerque Center
Mon 04:33:21 PM 34.4903 -112.7333 262° West 373 429 40,000  Level Albuquerque Center
Mon 04:34:22 PM 34.4736 -112.8831 262° West 374 430 40,000  Level Albuquerque Center
Mon 04:35:23 PM 34.4594 -113.0078 262° West 374 430 40,000  Level Albuquerque Center
Mon 04:36:26 PM 34.4458 -113.1325 262° West 375 432 40,000  Level Albuquerque Center
Mon 04:37:27 PM 34.4311 -113.2572 262° West 375 432 40,000  Level Albuquerque Center
Mon 04:38:31 PM 34.4161 -113.3806 262° West 373 429 40,000  Level Albuquerque Center
Mon 04:39:31 PM 34.4011 -113.5064 262° West 376 433 40,000  Level Albuquerque Center
Mon 04:40:35 PM 34.3858 -113.6372 262° West 375 432 40,000  Level Albuquerque Center
Mon 04:41:35 PM 34.3667 -113.7883 261° West 378 435 40,000  Level Albuquerque Center
Mon 04:42:39 PM 34.3508 -113.9133 261° West 376 433 40,000  Level Albuquerque Center
Mon 04:43:39 PM 34.3356 -114.0372 262° West 374 430 40,000  Level Albuquerque Center
Mon 04:44:43 PM 34.3208 -114.1608 262° West 372 428 40,000  Level Albuquerque Center
Mon 04:45:44 PM 34.3064 -114.2856 262° West 373 429 40,000  Level Albuquerque Center
Mon 04:46:45 PM 34.2911 -114.4094 262° West 373 429 40,000  Level Albuquerque Center
Mon 04:47:47 PM 34.2750 -114.5344 261° West 375 432 40,000  Level Albuquerque Center
Mon 04:49:11 PM 34.2528 -114.7175 262° West 372 428 40,000  Level Los Angeles Center
Mon 04:50:13 PM 34.2367 -114.8403 261° West 372 428 40,000  Level Los Angeles Center
Mon 04:51:16 PM 34.2211 -114.9636 261° West 373 429 40,000  Level Los Angeles Center
Mon 04:52:18 PM 34.2022 -115.1092 261° West 368 423 40,000  Level Los Angeles Center
Mon 04:53:19 PM 34.1889 -115.2069 261° West 368 423 40,000  Level Los Angeles Center
Mon 04:54:22 PM 34.1694 -115.3519 261° West 367 422 40,000 -576 Level Los Angeles Center
Mon 04:55:24 PM 34.1544 -115.4697 261° West 357 411 38,800 -1,548 Descending Los Angeles Center
Mon 04:56:26 PM 34.1372 -115.5847 260° West 352 405 36,800 -1,935 Descending Los Angeles Center
Mon 04:57:28 PM 34.1214 -115.7061 261° West 364 419 34,800 -2,112 Descending Los Angeles Center
Mon 04:58:31 PM 34.1019 -115.8517 261° West 367 422 32,400 -2,112 Descending Los Angeles Center
Mon 04:59:33 PM 34.0822 -115.9722 259° West 367 422 30,400 -1,935 Descending Los Angeles Center
Mon 05:00:35 PM 34.0650 -116.0978 261° West 378 435 28,400 -1,935 Descending Los Angeles Center
Mon 05:01:37 PM 34.0458 -116.2222 260° West 379 436 26,400 -1,935 Descending Los Angeles Center
Mon 05:02:39 PM 34.0275 -116.3467 260° West 379 436 24,400 -1,161 Descending Los Angeles Center
Mon 05:03:41 PM 34.0056 -116.4936 260° West 375 432 24,000 -336 Descending Los Angeles Center
Mon 05:04:44 PM 33.9958 -116.6119 264° West 362 417 23,700 -816 Descending Los Angeles Center
Mon 05:05:46 PM 33.9869 -116.7214 264° West 339 390 22,300 -1,279 Descending Los Angeles Center
Mon 05:07:00 PM 33.9792 -116.8319 265° West 333 383 20,800 -1,456 Descending Los Angeles Center
Mon 05:08:02 PM 33.9681 -116.9664 264° West 337 388 19,000 -1,714 Descending Los Angeles Center
Mon 05:08:59 PM 33.9500 -117.0833 259° West 322 371 17,400 -1,892 Descending Southern California TRACON
Mon 05:09:53 PM 33.9500 -117.1833 270° West 309 356 15,500 -1,200 Descending Southern California TRACON
Mon 05:10:59 PM 33.9333 -117.2833 259° West 302 348 15,000 -714 Descending Southern California TRACON
Mon 05:11:59 PM 33.9333 -117.3833 270° West 311 358 14,000 -1,250 Descending Southern California TRACON
Mon 05:12:59 PM 33.9667 -117.4833 292° West 291 335 12,500 -992 Descending Southern California TRACON
Mon 05:14:00 PM 34.0000 -117.5833 292° West 301 346 12,000 -248 Descending Southern California TRACON
Mon 05:15:00 PM 34.0000 -117.6667 270° West 282 325 12,000 -900 Level Southern California TRACON
Mon 05:16:00 PM 33.9833 -117.7500 256° West 256 295 10,200 -1,450 Descending Southern California TRACON
Mon 05:17:00 PM 33.9833 -117.8333 270° West 237 273 9,100 -900 Descending Southern California TRACON
Mon 05:18:00 PM 33.9833 -117.9000 270° West 206 237 8,400 -1,000 Descending Southern California TRACON
Mon 05:19:00 PM 33.9833 -117.9667 270° West 206 237 7,100 -1,250 Descending Southern California TRACON
Mon 05:20:00 PM 33.9667 -118.0333 253° West 190 219 5,900 -1,143 Descending Southern California TRACON
Mon 05:21:06 PM 33.9667 -118.1167 270° West 195 224 4,700 -1,100 Descending Southern California TRACON
Mon 05:22:00 PM 33.9667 -118.1667 270° West 199 229 3,700 -1,047 Descending Southern California TRACON
Mon 05:22:32 PM 33.9572 -118.1953 248° West 197 227 3,200 -947 Descending Los Angeles Center
Mon 05:23:35 PM 33.9506 -118.2561 262° West 191 220 2,200 -912 Descending Los Angeles Center
Mon 05:24:37 PM 33.9436 -118.3203 263° West 168 193 1,300 -726 Descending Los Angeles Center
Mon 05:25:39 PM 33.9411 -118.3556 265° West 127 146 700 -484 Descending Los Angeles Center
Mon 05:26:41 PM 33.9372 -118.3928 263° West 115 132 300 -387 Descending Los Angeles Center
Mon 05:28:00 PM 33.9333 -118.4000 270° West  Level FlightAware Approximate
Mon 05:35:00 PM 33.9425 -118.4081 270° West  Level Estimated

Login

Don't have an account? Register now (free) for customized features, flight alerts, and more!